createdAt,value
2024-02-04T00:01:15.945Z,7.82
2024-02-04T00:03:50.078Z,8.77
2024-02-04T00:06:22.269Z,8.13
2024-02-04T00:08:55.053Z,7.63
2024-02-04T00:11:26.093Z,7.85
2024-02-04T00:13:58.266Z,7.47
2024-02-04T00:16:36.582Z,7.25
2024-02-04T00:19:10.713Z,7.85
2024-02-04T00:21:41.514Z,7.60
2024-02-04T00:24:12.292Z,7.38
2024-02-04T00:26:42.920Z,7.38
2024-02-04T00:29:13.550Z,7.60
2024-02-04T00:31:46.603Z,7.18
2024-02-04T00:34:20.083Z,7.00
2024-02-04T00:36:50.900Z,8.70
2024-02-04T00:39:22.043Z,7.72
2024-02-04T00:41:52.874Z,7.50
2024-02-04T00:44:23.764Z,8.57
2024-02-04T00:46:54.383Z,9.25
2024-02-04T00:49:27.959Z,8.55
2024-02-04T00:51:59.198Z,8.73
2024-02-04T00:54:29.890Z,9.57
2024-02-04T00:57:01.518Z,9.18
2024-02-04T00:59:33.488Z,8.85
2024-02-04T01:02:12.929Z,8.30
2024-02-04T01:04:46.922Z,8.63
2024-02-04T01:07:17.743Z,8.50
2024-02-04T01:09:55.374Z,8.10
2024-02-04T01:12:27.033Z,8.10
2024-02-04T01:14:58.117Z,8.93
2024-02-04T01:17:29.039Z,8.38
2024-02-04T01:20:02.479Z,8.93
2024-02-04T01:22:33.340Z,11.73
2024-02-04T01:25:04.401Z,15.05
2024-02-04T01:27:35.620Z,16.27
2024-02-04T01:30:07.652Z,14.68
2024-02-04T01:32:40.123Z,14.77
2024-02-04T01:35:13.981Z,13.70
2024-02-04T01:37:45.361Z,10.02
2024-02-04T01:40:16.990Z,8.35
2024-02-04T01:42:47.786Z,7.18
2024-02-04T01:45:18.604Z,7.10
2024-02-04T01:47:49.932Z,7.10
2024-02-04T01:50:23.708Z,7.22
2024-02-04T01:52:56.609Z,7.60
2024-02-04T01:55:28.057Z,7.63
2024-02-04T01:57:59.864Z,7.93
2024-02-04T02:00:30.663Z,7.05
2024-02-04T02:03:03.263Z,7.40
2024-02-04T02:05:37.881Z,7.80
2024-02-04T02:08:10.521Z,7.60
2024-02-04T02:10:44.370Z,7.32
2024-02-04T02:13:24.775Z,7.55
2024-02-04T02:16:01.026Z,7.47
2024-02-04T02:18:37.664Z,7.55
2024-02-04T02:21:31.149Z,7.70
2024-02-04T02:24:14.252Z,7.75
2024-02-04T02:26:50.472Z,8.68
2024-02-04T02:29:21.322Z,8.15
2024-02-04T02:31:52.205Z,10.05
2024-02-04T02:34:34.577Z,9.05
2024-02-04T02:37:17.384Z,8.85
2024-02-04T02:39:59.870Z,7.93
2024-02-04T02:42:35.038Z,9.32
2024-02-04T02:45:06.940Z,8.68
2024-02-04T02:47:38.489Z,8.75
2024-02-04T02:50:11.431Z,8.68
2024-02-04T02:52:42.223Z,9.15
2024-02-04T02:55:13.159Z,7.82
2024-02-04T02:57:46.769Z,8.45
2024-02-04T03:00:18.754Z,8.40
2024-02-04T03:02:50.147Z,9.07
2024-02-04T03:05:22.139Z,8.23
2024-02-04T03:07:54.216Z,8.25
2024-02-04T03:10:25.020Z,7.97
2024-02-04T03:12:58.579Z,8.38
2024-02-04T03:15:29.493Z,9.30
2024-02-04T03:18:03.485Z,8.70
2024-02-04T03:20:34.455Z,9.05
2024-02-04T03:23:08.506Z,8.57
2024-02-04T03:25:42.031Z,8.25
2024-02-04T03:28:15.805Z,8.43
2024-02-04T03:30:49.770Z,8.23
2024-02-04T03:33:21.663Z,8.10
2024-02-04T03:35:52.866Z,8.00
2024-02-04T03:38:23.865Z,9.18
2024-02-04T03:40:56.444Z,8.00
2024-02-04T03:43:29.899Z,8.07
2024-02-04T03:46:01.321Z,7.97
2024-02-04T03:48:32.822Z,7.85
2024-02-04T03:51:04.606Z,8.40
2024-02-04T03:53:54.252Z,7.63
2024-02-04T03:56:34.200Z,8.05
2024-02-04T03:59:10.477Z,7.90
2024-02-04T04:01:44.854Z,8.27
2024-02-04T04:06:53.644Z,9.45
2024-02-04T04:09:25.138Z,8.48
2024-02-04T04:12:06.840Z,9.15
2024-02-04T04:14:50.378Z,9.00
2024-02-04T04:17:22.828Z,8.07
2024-02-04T04:19:53.850Z,8.48
2024-02-04T04:22:24.757Z,8.95
2024-02-04T04:24:55.735Z,9.10
2024-02-04T04:27:26.896Z,9.05
2024-02-04T04:30:00.640Z,8.10
2024-02-04T04:40:34.438Z,9.13
2024-02-04T04:53:57.943Z,8.65
2024-02-04T04:56:32.586Z,8.30
2024-02-04T04:59:07.095Z,8.63
2024-02-04T05:01:52.565Z,8.50
2024-02-04T05:04:34.857Z,7.55
2024-02-04T05:07:08.231Z,8.75
2024-02-04T05:19:57.821Z,7.35
2024-02-04T05:22:32.742Z,6.00
2024-02-04T05:25:12.470Z,6.10
2024-02-04T05:28:20.010Z,4.70
2024-02-04T05:30:59.606Z,4.47
2024-02-04T05:34:02.029Z,4.82
2024-02-04T05:36:43.368Z,4.65
2024-02-04T05:39:38.942Z,4.78
2024-02-04T05:42:19.138Z,3.47
2024-02-04T05:44:53.414Z,3.45
2024-02-04T05:58:29.041Z,2.80
2024-02-04T06:04:21.179Z,3.67
2024-02-04T06:07:02.825Z,3.08
2024-02-04T06:09:35.031Z,3.08
2024-02-04T06:12:13.460Z,3.00
2024-02-04T06:14:44.371Z,3.50
2024-02-04T06:17:33.308Z,4.30
2024-02-04T06:20:05.814Z,3.72
2024-02-04T06:33:43.778Z,4.07
2024-02-04T06:36:35.534Z,3.40
2024-02-04T06:39:09.927Z,3.78
2024-02-04T06:41:41.080Z,3.08
2024-02-04T06:44:13.452Z,2.97
2024-02-04T06:46:47.942Z,3.80
2024-02-04T06:49:20.255Z,3.40
2024-02-04T06:52:24.043Z,3.13
2024-02-04T06:55:30.903Z,3.22
2024-02-04T06:58:59.303Z,3.63
2024-02-04T07:05:06.510Z,4.25
2024-02-04T07:08:32.016Z,3.17
2024-02-04T07:11:57.930Z,4.97
2024-02-04T07:14:40.290Z,5.30
2024-02-04T07:17:16.637Z,11.93
2024-02-04T07:19:53.117Z,9.23
2024-02-04T07:22:32.704Z,9.63
2024-02-04T07:25:14.036Z,11.00
2024-02-04T07:27:58.190Z,7.97
2024-02-04T07:30:50.521Z,5.93
2024-02-04T07:33:24.332Z,6.00
2024-02-04T07:36:00.524Z,5.63
2024-02-04T07:38:35.837Z,5.82
2024-02-04T07:41:13.262Z,7.05
2024-02-04T07:43:46.935Z,6.75
2024-02-04T07:46:23.876Z,8.13
2024-02-04T07:48:55.729Z,6.90
2024-02-04T07:51:26.968Z,7.53
2024-02-04T07:53:58.255Z,6.68
2024-02-04T07:56:29.156Z,7.22
2024-02-04T07:59:19.392Z,5.40
2024-02-04T08:01:58.131Z,6.97
2024-02-04T08:04:45.695Z,5.90
2024-02-04T08:07:24.260Z,6.65
2024-02-04T08:09:56.415Z,6.53
2024-02-04T08:12:27.265Z,6.13
2024-02-04T08:14:58.304Z,6.90
2024-02-04T08:17:32.391Z,6.25
2024-02-04T08:20:05.653Z,6.15
2024-02-04T08:22:37.154Z,4.30
2024-02-04T08:25:11.973Z,4.50
2024-02-04T08:27:42.911Z,4.43
2024-02-04T08:30:14.865Z,5.75
2024-02-04T08:32:49.684Z,6.50
2024-02-04T08:35:20.644Z,6.32
2024-02-04T08:37:51.415Z,5.90
2024-02-04T08:40:22.468Z,7.88
2024-02-04T08:42:53.330Z,4.85
2024-02-04T08:45:24.141Z,5.28
2024-02-04T08:47:58.090Z,4.70
2024-02-04T08:50:29.053Z,3.60
2024-02-04T08:52:59.847Z,4.70
2024-02-04T08:55:30.897Z,5.53
2024-02-04T08:58:06.101Z,3.75
2024-02-04T09:00:37.075Z,4.35
2024-02-04T09:03:10.586Z,4.95
2024-02-04T09:05:41.367Z,6.97
2024-02-04T09:08:12.327Z,5.15
2024-02-04T09:10:43.406Z,4.40
2024-02-04T09:13:14.291Z,4.80
2024-02-04T09:15:45.304Z,4.80
2024-02-04T09:18:18.866Z,8.13
2024-02-04T09:20:49.945Z,5.70
2024-02-04T09:23:21.537Z,7.68
2024-02-04T09:25:52.819Z,5.43
2024-02-04T09:28:39.893Z,11.20
2024-02-04T09:31:13.443Z,6.45
2024-02-04T09:33:48.258Z,8.35
2024-02-04T09:36:19.836Z,10.75
2024-02-04T09:39:09.263Z,5.38
2024-02-04T09:41:44.116Z,7.35
2024-02-04T09:44:19.050Z,13.85
2024-02-04T09:46:53.416Z,6.95
2024-02-04T09:49:27.818Z,5.97
2024-02-04T09:52:00.687Z,9.13
2024-02-04T09:54:40.331Z,5.35
2024-02-04T09:57:15.297Z,7.18
2024-02-04T09:59:48.640Z,4.88
2024-02-04T10:02:22.767Z,4.75
2024-02-04T10:08:53.315Z,4.68
2024-02-04T10:11:25.194Z,4.05
2024-02-04T10:13:56.384Z,4.85
2024-02-04T10:16:31.457Z,5.53
2024-02-04T10:19:02.736Z,4.22
2024-02-04T10:21:34.717Z,4.88
2024-02-04T10:24:11.239Z,4.07
2024-02-04T10:26:45.012Z,4.18
2024-02-04T10:29:19.174Z,4.45
2024-02-04T10:31:59.044Z,4.45
2024-02-04T10:34:42.194Z,4.40
2024-02-04T10:37:16.038Z,4.55
2024-02-04T10:39:49.818Z,4.30
2024-02-04T10:42:24.772Z,4.22
2024-02-04T10:44:57.519Z,4.78
2024-02-04T10:47:34.910Z,13.85
2024-02-04T10:50:19.593Z,9.15
2024-02-04T10:52:52.296Z,6.97
2024-02-04T10:55:33.427Z,6.75
2024-02-04T10:58:10.711Z,4.60
2024-02-04T11:01:53.244Z,5.10
2024-02-04T11:05:17.995Z,5.13
2024-02-04T11:08:29.972Z,4.82
2024-02-04T11:11:04.859Z,4.47
2024-02-04T11:14:11.550Z,5.10
2024-02-04T11:17:16.569Z,6.20
2024-02-04T11:20:10.257Z,5.10
2024-02-04T11:23:50.426Z,4.60
2024-02-04T11:26:34.253Z,4.72
2024-02-04T11:29:08.200Z,6.25
2024-02-04T11:31:39.688Z,5.57
2024-02-04T11:34:12.647Z,6.38
2024-02-04T11:36:44.597Z,5.40
2024-02-04T11:39:19.909Z,5.47
2024-02-04T11:41:53.455Z,7.35
2024-02-04T11:44:28.194Z,4.90
2024-02-04T11:47:00.125Z,5.13
2024-02-04T11:49:31.770Z,5.63
2024-02-04T11:52:05.166Z,5.05
2024-02-04T11:54:39.227Z,6.65
2024-02-04T11:57:13.304Z,5.63
2024-02-04T11:59:44.632Z,5.03
2024-02-04T12:02:16.288Z,4.65
2024-02-04T12:04:48.926Z,4.28
2024-02-04T12:07:20.499Z,6.15
2024-02-04T12:09:52.373Z,5.65
2024-02-04T12:12:27.241Z,4.97
2024-02-04T12:14:58.412Z,5.55
2024-02-04T12:17:29.638Z,4.20
2024-02-04T12:20:00.839Z,5.07
2024-02-04T12:22:32.029Z,10.00
2024-02-04T12:25:03.460Z,7.13
2024-02-04T12:27:41.077Z,7.47
2024-02-04T12:30:13.811Z,5.88
2024-02-04T12:32:44.616Z,6.35
2024-02-04T12:35:18.865Z,4.75
2024-02-04T12:37:55.412Z,5.22
2024-02-04T12:40:26.938Z,4.55
2024-02-04T12:43:06.261Z,3.72
2024-02-04T12:45:38.607Z,4.22
2024-02-04T12:48:10.512Z,4.22
2024-02-04T12:50:43.835Z,5.25
2024-02-04T12:53:22.790Z,3.63
2024-02-04T12:56:02.366Z,4.90
2024-02-04T12:58:48.222Z,5.57
2024-02-04T13:01:24.468Z,7.03
2024-02-04T13:04:03.060Z,7.57
2024-02-04T13:06:34.993Z,5.22
2024-02-04T13:09:11.108Z,6.18
2024-02-04T13:11:42.338Z,6.50
2024-02-04T13:14:19.426Z,5.47
2024-02-04T13:16:50.301Z,4.35
2024-02-04T13:19:24.269Z,4.50
2024-02-04T13:21:57.866Z,5.43
2024-02-04T13:24:28.850Z,6.05
2024-02-04T13:27:02.278Z,5.85
2024-02-04T13:29:38.724Z,6.55
2024-02-04T13:32:10.485Z,4.95
2024-02-04T13:34:41.698Z,4.72
2024-02-04T13:37:20.055Z,6.88
2024-02-04T13:40:02.108Z,5.97
2024-02-04T13:42:33.521Z,5.10
2024-02-04T13:45:08.130Z,4.60
2024-02-04T13:47:39.188Z,7.00
2024-02-04T13:50:15.738Z,5.78
2024-02-04T13:52:46.674Z,5.63
2024-02-04T13:55:17.655Z,5.40
2024-02-04T13:57:48.536Z,5.57
2024-02-04T14:00:22.365Z,5.38
2024-02-04T14:02:56.609Z,5.47
2024-02-04T14:05:30.500Z,5.95
2024-02-04T14:08:01.628Z,7.25
2024-02-04T14:10:33.089Z,5.47
2024-02-04T14:13:09.750Z,5.10
2024-02-04T14:15:45.337Z,6.00
2024-02-04T14:18:16.377Z,5.35
2024-02-04T14:20:47.443Z,5.45
2024-02-04T14:23:18.069Z,4.82
2024-02-04T14:25:49.461Z,6.07
2024-02-04T14:28:21.112Z,5.82
2024-02-04T14:30:58.312Z,5.95
2024-02-04T14:33:30.474Z,5.47
2024-02-04T14:36:01.777Z,5.50
2024-02-04T14:38:32.412Z,5.60
2024-02-04T14:41:03.291Z,5.90
2024-02-04T14:43:34.060Z,5.30
2024-02-04T14:46:08.238Z,4.97
2024-02-04T14:48:43.104Z,5.75
2024-02-04T14:51:15.228Z,6.05
2024-02-04T14:53:46.077Z,5.10
2024-02-04T14:56:18.572Z,5.85
2024-02-04T14:58:49.199Z,5.47
2024-02-04T15:01:22.959Z,4.70
2024-02-04T15:03:54.246Z,4.97
2024-02-04T15:06:25.172Z,4.88
2024-02-04T15:08:55.871Z,5.53
2024-02-04T15:11:27.251Z,6.28
2024-02-04T15:13:59.447Z,5.30
2024-02-04T15:16:33.642Z,5.85
2024-02-04T15:19:10.235Z,5.30
2024-02-04T15:22:00.562Z,4.40
2024-02-04T15:25:16.554Z,5.35
2024-02-04T15:28:37.145Z,6.50
2024-02-04T15:31:25.214Z,6.22
2024-02-04T15:34:06.726Z,5.93
2024-02-04T15:36:38.083Z,6.07
2024-02-04T15:39:12.765Z,5.80
2024-02-04T15:41:47.000Z,6.45
2024-02-04T15:44:22.928Z,5.68
2024-02-04T15:46:57.639Z,5.28
2024-02-04T15:49:35.762Z,5.30
2024-02-04T15:52:19.458Z,6.60
2024-02-04T15:54:58.794Z,5.75
2024-02-04T15:57:38.111Z,6.53
2024-02-04T16:00:19.288Z,6.43
2024-02-04T16:02:53.636Z,6.43
2024-02-04T16:05:31.253Z,6.93
2024-02-04T16:08:04.833Z,12.18
2024-02-04T16:10:40.484Z,11.48
2024-02-04T16:13:14.882Z,9.85
2024-02-04T16:15:53.397Z,14.20
2024-02-04T16:18:55.160Z,9.80
2024-02-04T16:21:41.445Z,10.05
2024-02-04T16:24:15.277Z,13.00
2024-02-04T16:33:58.160Z,9.77
2024-02-04T16:36:42.171Z,7.72
2024-02-04T16:39:34.882Z,8.23
2024-02-04T16:42:10.642Z,7.70
2024-02-04T16:44:42.126Z,9.70
2024-02-04T16:47:25.705Z,9.55
2024-02-04T16:52:29.144Z,9.15
2024-02-04T16:54:44.159Z,7.72
2024-02-04T17:02:29.815Z,10.40
2024-02-04T17:05:05.384Z,9.80
2024-02-04T17:07:50.688Z,13.20
2024-02-04T17:10:30.741Z,12.82
2024-02-04T17:13:06.256Z,12.15
2024-02-04T17:18:31.710Z,11.98
2024-02-04T17:19:20.752Z,14.45
2024-02-04T17:22:00.514Z,10.90
2024-02-04T17:24:36.896Z,9.05
2024-02-04T17:27:18.836Z,8.65
2024-02-04T17:29:53.888Z,8.65
2024-02-04T17:32:43.461Z,11.02
2024-02-04T17:35:25.260Z,8.88
2024-02-04T17:37:58.782Z,9.25
2024-02-04T17:40:52.489Z,9.13
2024-02-04T17:43:29.641Z,7.82
2024-02-04T17:48:46.935Z,8.45
2024-02-04T17:51:29.682Z,8.10
2024-02-04T17:54:06.547Z,7.93
2024-02-04T17:56:41.488Z,7.23
2024-02-04T17:59:22.003Z,8.40
2024-02-04T18:02:27.801Z,7.30
2024-02-04T18:05:00.356Z,8.70
2024-02-04T18:07:32.867Z,11.02
2024-02-04T18:10:08.717Z,9.50
2024-02-04T18:12:43.271Z,9.77
2024-02-04T18:15:24.814Z,9.48
2024-02-04T18:17:59.216Z,9.90
2024-02-04T18:20:32.114Z,9.38
2024-02-04T18:23:26.790Z,9.95
2024-02-04T18:26:07.376Z,9.57
2024-02-04T18:29:03.239Z,9.43
2024-02-04T18:31:36.389Z,10.57
2024-02-04T18:34:09.985Z,10.35
2024-02-04T18:36:42.897Z,20.58
2024-02-04T18:39:18.068Z,28.65
2024-02-04T18:41:49.552Z,13.80
2024-02-04T18:44:31.339Z,11.38
2024-02-04T18:47:05.291Z,12.98
2024-02-04T18:49:36.473Z,11.75
2024-02-04T18:54:44.297Z,12.68
2024-02-04T18:57:23.445Z,13.75
2024-02-04T18:59:58.133Z,12.70
2024-02-04T19:02:36.072Z,12.85
2024-02-04T19:05:07.748Z,10.02
2024-02-04T19:07:48.867Z,8.98
2024-02-04T19:10:27.420Z,9.55
2024-02-04T19:20:05.028Z,8.63
2024-02-04T19:22:36.216Z,9.23
2024-02-04T19:25:11.707Z,9.48
2024-02-04T19:27:50.413Z,8.85
2024-02-04T19:30:24.556Z,12.45
2024-02-04T19:32:57.186Z,9.38
2024-02-04T19:35:33.906Z,9.18
2024-02-04T19:38:05.498Z,11.55
2024-02-04T19:40:36.859Z,10.40
2024-02-04T19:43:12.626Z,11.25
2024-02-04T19:45:46.355Z,10.48
2024-02-04T19:48:20.211Z,10.60
2024-02-04T19:50:54.555Z,9.85
2024-02-04T19:53:25.639Z,17.48
2024-02-04T19:56:01.945Z,15.35
2024-02-04T19:58:34.330Z,19.65
2024-02-04T20:01:05.816Z,18.20
2024-02-04T20:04:08.199Z,13.60
2024-02-04T20:07:46.629Z,13.85
2024-02-04T20:10:20.936Z,11.20
2024-02-04T20:13:01.854Z,11.43
2024-02-04T20:15:52.949Z,11.77
2024-02-04T20:18:42.465Z,11.80
2024-02-04T20:21:17.391Z,12.38
2024-02-04T20:23:55.984Z,13.27
2024-02-04T20:26:35.775Z,11.18
2024-02-04T20:29:16.867Z,11.50
2024-02-04T20:31:51.630Z,10.43
2024-02-04T20:34:27.764Z,10.75
2024-02-04T20:37:12.026Z,11.38
2024-02-04T20:39:50.741Z,15.00
2024-02-04T20:42:30.819Z,13.00
2024-02-04T20:45:03.990Z,13.88
2024-02-04T20:47:44.505Z,15.80
2024-02-04T20:50:19.971Z,15.60
2024-02-04T20:52:51.094Z,13.02
2024-02-04T20:55:26.272Z,12.40
2024-02-04T20:57:59.745Z,10.20
2024-02-04T21:00:35.030Z,11.45
2024-02-04T21:03:08.173Z,10.60
2024-02-04T21:05:43.691Z,10.63
2024-02-04T21:08:25.580Z,11.05
2024-02-04T21:11:07.298Z,12.10
2024-02-04T21:13:46.238Z,14.20
2024-02-04T21:16:25.205Z,12.35
2024-02-04T21:19:34.983Z,12.60
2024-02-04T21:22:25.497Z,12.15
2024-02-04T21:24:57.678Z,18.40
2024-02-04T21:27:33.801Z,27.83
2024-02-04T21:30:06.913Z,19.83
2024-02-04T21:32:37.869Z,17.13
2024-02-04T21:35:12.401Z,11.05
2024-02-04T21:37:43.339Z,16.30
2024-02-04T21:40:15.391Z,17.92
2024-02-04T21:42:48.835Z,14.23
2024-02-04T21:45:22.282Z,13.75
2024-02-04T21:47:53.368Z,11.95
2024-02-04T21:50:24.162Z,11.52
2024-02-04T21:52:55.793Z,12.10
2024-02-04T21:55:26.779Z,10.13
2024-02-04T21:58:00.163Z,9.93
2024-02-04T22:00:32.674Z,10.40
2024-02-04T22:03:03.710Z,9.38
2024-02-04T22:05:34.710Z,10.48
2024-02-04T22:08:05.406Z,8.57
2024-02-04T22:10:38.028Z,9.73
2024-02-04T22:13:15.067Z,8.65
2024-02-04T22:15:46.240Z,9.40
2024-02-04T22:18:17.454Z,8.90
2024-02-04T22:20:49.036Z,10.00
2024-02-04T22:23:21.720Z,9.80
2024-02-04T22:25:55.915Z,9.90
2024-02-04T22:28:32.034Z,8.60
2024-02-04T22:31:04.942Z,9.15
2024-02-04T22:33:35.824Z,9.35
2024-02-04T22:36:09.770Z,9.70
2024-02-04T22:38:40.743Z,9.75
2024-02-04T22:41:12.039Z,10.18
2024-02-04T22:43:45.453Z,8.95
2024-02-04T22:46:18.680Z,9.98
2024-02-04T22:48:49.809Z,9.93
2024-02-04T22:51:22.615Z,10.02
2024-02-04T22:53:54.523Z,8.77
2024-02-04T22:56:26.844Z,9.38
2024-02-04T22:59:01.345Z,8.77
2024-02-04T23:01:32.208Z,9.57
2024-02-04T23:04:03.294Z,9.23
2024-02-04T23:06:34.185Z,8.48
2024-02-04T23:09:05.004Z,10.60
2024-02-04T23:11:36.487Z,8.63
2024-02-04T23:14:10.461Z,8.82
2024-02-04T23:16:41.237Z,8.82
2024-02-04T23:19:12.912Z,10.00
2024-02-04T23:21:43.981Z,8.98
2024-02-04T23:24:14.640Z,8.52
2024-02-04T23:26:45.451Z,8.63
2024-02-04T23:29:18.962Z,8.73
2024-02-04T23:31:50.400Z,8.75
2024-02-04T23:34:21.128Z,8.38
2024-02-04T23:36:52.340Z,7.45
2024-02-04T23:39:23.064Z,7.65
2024-02-04T23:41:54.195Z,8.10
2024-02-04T23:44:28.197Z,8.68
2024-02-04T23:46:58.825Z,7.32
2024-02-04T23:49:29.644Z,7.90
2024-02-04T23:52:00.688Z,7.35
2024-02-04T23:54:31.396Z,7.22
2024-02-04T23:57:04.900Z,7.68
2024-02-04T23:59:38.275Z,6.93
